Terminal Aerodrome Forecast
Issued by NWS

Home | Current Version | Previous Version | Text Only | Print | Product List | Glossary On
Versions: 1 2 3 4 5 6 7 8 9 10 11 12 13 14
000
FTUS43 KMPX 261100
TAFAXN
TAF
KAXN 261120Z 2612/2712 23004KT P6SM BKN025
     FM261230 32006KT P6SM SCT250
     FM270000 27004KT P6SM BKN100
     FM270500 VRB02KT P6SM OVC100=

USA.gov is the U.S. government's official web portal to all federal, state and local government web resources and services.